Pedra Preta, Brazil
Current Conditions -  °F | °C
As of 3:00 AM on Saturday 20 Dec 2014 (Local Time) from SBCY Reporting Station
Broken Clouds Broken Clouds  
Wind Chill: 77°   Ceiling: 10000
Heat Index: 78°   Visibility: 6mi
Dew Point: 73°   Wind: 9mph
Humidity: 89%   Direction: 340°NNW
Pressure: 29.74"   Gusts: NA
Location:  16.62°S, 54.47°W
Report Text: SBCY 200600Z 34008KT 9999 FEW020 BKN100 25/23 Q1007
Loading
Personal Weather Stations






























Interactive Weather Map New forecast layout! Learn more

10-Day Weather Forecast

Advertisements
Track Severe Weather on mobile